createdAt,value
2019-06-26T00:00:35.666Z,13.20
2019-06-26T00:03:03.096Z,13.83
2019-06-26T00:05:32.407Z,13.48
2019-06-26T00:08:01.294Z,14.05
2019-06-26T00:10:30.225Z,13.98
2019-06-26T00:12:59.110Z,14.25
2019-06-26T00:15:28.037Z,13.88
2019-06-26T00:17:56.912Z,14.10
2019-06-26T00:20:25.840Z,14.33
2019-06-26T00:22:54.730Z,14.40
2019-06-26T00:25:23.633Z,13.43
2019-06-26T00:27:52.510Z,13.90
2019-06-26T00:30:21.628Z,14.20
2019-06-26T00:32:50.702Z,13.58
2019-06-26T00:35:19.605Z,13.98
2019-06-26T00:37:48.481Z,14.53
2019-06-26T00:40:17.587Z,14.00
2019-06-26T00:42:46.466Z,14.78
2019-06-26T00:45:15.382Z,14.33
2019-06-26T00:47:44.259Z,13.68
2019-06-26T00:50:13.491Z,13.60
2019-06-26T00:52:42.373Z,14.23
2019-06-26T00:55:12.370Z,13.93
2019-06-26T00:57:41.242Z,15.43
2019-06-26T01:00:11.924Z,13.68
2019-06-26T01:02:40.848Z,13.62
2019-06-26T01:05:13.955Z,15.03
2019-06-26T01:10:12.477Z,14.00
2019-06-26T01:12:41.348Z,14.28
2019-06-26T01:15:11.668Z,14.03
2019-06-26T01:17:40.537Z,14.28
2019-06-26T01:20:09.553Z,14.43
2019-06-26T01:22:38.440Z,14.07
2019-06-26T01:25:07.746Z,14.07
2019-06-26T01:27:36.633Z,14.05
2019-06-26T01:30:08.649Z,14.73
2019-06-26T01:32:37.526Z,14.47
2019-06-26T01:35:08.136Z,13.93
2019-06-26T01:37:37.008Z,14.18
2019-06-26T01:40:07.223Z,13.48
2019-06-26T01:42:36.117Z,14.30
2019-06-26T01:45:06.821Z,14.03
2019-06-26T01:47:35.737Z,14.50
2019-06-26T01:50:06.215Z,13.50
2019-06-26T01:52:35.124Z,13.70
2019-06-26T01:55:05.769Z,14.93
2019-06-26T01:57:34.705Z,15.18
2019-06-26T02:00:04.294Z,13.28
2019-06-26T02:02:33.197Z,14.23
2019-06-26T02:05:02.083Z,13.80
2019-06-26T02:07:31.001Z,14.40
2019-06-26T02:09:59.882Z,14.00
2019-06-26T02:12:28.805Z,13.45
2019-06-26T02:14:57.700Z,14.58
2019-06-26T02:17:26.611Z,13.55
2019-06-26T02:19:55.486Z,13.90
2019-06-26T02:22:24.405Z,13.93
2019-06-26T02:24:53.288Z,13.62
2019-06-26T02:27:22.608Z,13.35
2019-06-26T02:29:51.486Z,14.58
2019-06-26T02:32:20.405Z,14.23
2019-06-26T02:34:49.283Z,13.78
2019-06-26T02:37:18.202Z,13.93
2019-06-26T02:39:47.128Z,14.18
2019-06-26T02:42:16.106Z,14.38
2019-06-26T02:44:52.928Z,14.30
2019-06-26T02:47:20.051Z,13.05
2019-06-26T02:49:46.072Z,14.75
2019-06-26T02:52:14.987Z,13.58
2019-06-26T02:54:43.864Z,14.60
2019-06-26T02:57:12.781Z,14.25
2019-06-26T02:59:41.647Z,13.98
2019-06-26T03:02:10.575Z,14.05
2019-06-26T03:04:39.444Z,14.98
2019-06-26T03:07:08.362Z,13.85
2019-06-26T03:09:37.232Z,14.18
2019-06-26T03:12:06.150Z,14.38
2019-06-26T03:14:35.029Z,14.10
2019-06-26T03:17:03.962Z,14.07
2019-06-26T03:19:32.845Z,14.85
2019-06-26T03:22:01.761Z,14.63
2019-06-26T03:24:30.634Z,15.50
2019-06-26T03:26:59.563Z,15.13
2019-06-26T03:29:28.442Z,13.83
2019-06-26T03:31:57.366Z,14.05
2019-06-26T03:34:29.200Z,13.30
2019-06-26T03:36:58.074Z,13.90
2019-06-26T03:39:26.993Z,13.93
2019-06-26T03:41:55.870Z,14.25
2019-06-26T03:44:24.808Z,14.47
2019-06-26T03:46:53.685Z,13.95
2019-06-26T03:49:22.589Z,13.95
2019-06-26T03:51:51.465Z,15.03
2019-06-26T03:54:20.394Z,14.98
2019-06-26T03:56:49.263Z,14.95
2019-06-26T03:59:18.188Z,14.78
2019-06-26T04:01:47.066Z,14.40
2019-06-26T04:04:15.977Z,13.72
2019-06-26T04:06:44.858Z,13.93
2019-06-26T04:09:13.783Z,13.95
2019-06-26T04:11:43.557Z,13.98
2019-06-26T04:14:12.477Z,14.18
2019-06-26T04:16:42.926Z,13.80
2019-06-26T04:19:12.735Z,13.85
2019-06-26T04:21:41.609Z,14.07
2019-06-26T04:24:10.521Z,12.68
2019-06-26T04:26:39.384Z,13.05
2019-06-26T04:29:08.297Z,12.18
2019-06-26T04:31:37.189Z,15.85
2019-06-26T04:34:06.104Z,16.25
2019-06-26T04:36:35.637Z,14.00
2019-06-26T04:39:08.063Z,12.60
2019-06-26T04:41:37.895Z,11.43
2019-06-26T04:44:07.917Z,12.43
2019-06-26T04:46:37.322Z,12.35
2019-06-26T04:49:06.717Z,12.18
2019-06-26T04:51:38.956Z,11.83
2019-06-26T04:54:07.950Z,11.53
2019-06-26T04:56:37.070Z,12.70
2019-06-26T04:59:07.024Z,12.82
2019-06-26T05:01:39.423Z,12.33
2019-06-26T05:04:09.478Z,11.97
2019-06-26T05:06:38.975Z,12.33
2019-06-26T05:09:09.273Z,12.33
2019-06-26T05:11:38.868Z,13.32
2019-06-26T05:14:09.739Z,13.28
2019-06-26T05:16:38.795Z,11.90
2019-06-26T05:19:08.408Z,12.35
2019-06-26T05:21:37.330Z,12.85
2019-06-26T05:24:06.259Z,11.70
2019-06-26T05:26:35.134Z,11.33
2019-06-26T05:29:04.258Z,11.35
2019-06-26T05:31:33.137Z,11.08
2019-06-26T05:34:02.156Z,11.20
2019-06-26T05:36:31.240Z,11.10
2019-06-26T05:39:00.158Z,10.95
2019-06-26T05:41:29.053Z,10.38
2019-06-26T05:43:57.980Z,10.38
2019-06-26T05:46:31.199Z,10.13
2019-06-26T05:48:57.420Z,10.35
2019-06-26T05:51:26.296Z,10.55
2019-06-26T05:53:55.204Z,10.63
2019-06-26T05:56:24.077Z,10.58
2019-06-26T05:58:53.010Z,10.63
2019-06-26T06:01:21.921Z,10.30
2019-06-26T06:03:50.831Z,9.73
2019-06-26T06:06:19.702Z,11.53
2019-06-26T06:08:48.656Z,10.28
2019-06-26T06:11:17.632Z,10.93
2019-06-26T06:13:46.506Z,10.95
2019-06-26T06:16:15.412Z,10.63
2019-06-26T06:18:44.293Z,10.35
2019-06-26T06:21:13.226Z,12.43
2019-06-26T06:23:42.094Z,11.68
2019-06-26T06:26:11.018Z,11.45
2019-06-26T06:28:39.890Z,12.15
2019-06-26T06:31:08.836Z,13.98
2019-06-26T06:33:37.690Z,14.58
2019-06-26T06:36:09.536Z,13.83
2019-06-26T06:38:37.146Z,11.15
2019-06-26T06:41:06.061Z,16.52
2019-06-26T06:43:34.942Z,13.28
2019-06-26T06:46:03.890Z,11.48
2019-06-26T06:48:32.770Z,11.50
2019-06-26T06:51:01.702Z,12.43
2019-06-26T06:53:30.592Z,12.43
2019-06-26T06:55:59.497Z,10.63
2019-06-26T06:58:30.276Z,9.03
2019-06-26T07:00:58.930Z,10.95
2019-06-26T07:03:27.808Z,14.38
2019-06-26T07:05:56.722Z,9.75
2019-06-26T07:08:25.588Z,12.35
2019-06-26T07:10:54.510Z,11.97
2019-06-26T07:13:23.406Z,13.48
2019-06-26T07:15:52.318Z,11.28
2019-06-26T07:18:21.203Z,16.25
2019-06-26T07:20:50.125Z,9.60
2019-06-26T07:23:19.019Z,10.13
2019-06-26T07:25:48.015Z,11.00
2019-06-26T07:28:17.045Z,14.03
2019-06-26T07:30:45.992Z,14.20
2019-06-26T07:33:14.899Z,13.50
2019-06-26T07:35:43.805Z,12.35
2019-06-26T07:38:12.661Z,11.33
2019-06-26T07:40:41.570Z,11.90
2019-06-26T07:43:10.442Z,10.30
2019-06-26T07:45:39.361Z,11.15
2019-06-26T07:48:08.262Z,10.38
2019-06-26T07:50:37.241Z,13.80
2019-06-26T07:53:06.234Z,11.93
2019-06-26T07:55:35.106Z,11.97
2019-06-26T07:58:04.037Z,14.47
2019-06-26T08:00:32.910Z,13.00
2019-06-26T08:03:04.181Z,14.25
2019-06-26T08:05:32.350Z,11.75
2019-06-26T08:08:01.371Z,10.65
2019-06-26T08:10:30.242Z,12.45
2019-06-26T08:12:59.137Z,11.55
2019-06-26T08:15:28.015Z,11.90
2019-06-26T08:18:00.910Z,14.78
2019-06-26T08:20:27.450Z,12.58
2019-06-26T08:22:56.371Z,11.78
2019-06-26T08:25:25.238Z,15.65
2019-06-26T08:27:54.150Z,20.45
2019-06-26T08:30:23.215Z,15.60
2019-06-26T08:32:52.160Z,13.13
2019-06-26T08:35:21.131Z,13.15
2019-06-26T08:37:50.143Z,13.35
2019-06-26T08:40:19.125Z,12.65
2019-06-26T08:42:48.043Z,10.05
2019-06-26T08:45:17.334Z,10.53
2019-06-26T08:47:46.241Z,9.93
2019-06-26T08:50:15.301Z,14.15
2019-06-26T08:52:44.224Z,12.23
2019-06-26T08:55:13.212Z,13.15
2019-06-26T08:57:42.125Z,16.77
2019-06-26T09:00:11.806Z,13.22
2019-06-26T09:02:40.719Z,10.80
2019-06-26T09:05:09.598Z,13.13
2019-06-26T09:07:38.514Z,13.05
2019-06-26T09:10:07.793Z,13.00
2019-06-26T09:12:36.703Z,16.62
2019-06-26T09:15:09.048Z,11.20
2019-06-26T09:17:37.963Z,15.60
2019-06-26T09:20:07.951Z,13.65
2019-06-26T09:22:36.863Z,13.40
2019-06-26T09:25:21.027Z,14.23
2019-06-26T09:27:38.783Z,12.35
2019-06-26T09:30:08.477Z,14.87
2019-06-26T09:32:37.397Z,10.18
2019-06-26T09:35:07.291Z,10.38
2019-06-26T09:37:36.289Z,13.88
2019-06-26T09:40:06.737Z,12.93
2019-06-26T09:42:35.655Z,11.25
2019-06-26T09:45:06.998Z,9.58
2019-06-26T09:47:35.942Z,12.28
2019-06-26T09:50:08.822Z,9.93
2019-06-26T09:52:37.733Z,10.98
2019-06-26T09:55:07.139Z,9.48
2019-06-26T09:57:36.119Z,11.50
2019-06-26T10:00:13.635Z,9.35
2019-06-26T10:02:42.579Z,11.05
2019-06-26T10:05:13.204Z,10.32
2019-06-26T10:07:42.091Z,13.55
2019-06-26T10:10:11.108Z,12.93
2019-06-26T10:12:39.977Z,16.70
2019-06-26T10:15:09.008Z,14.90
2019-06-26T10:17:37.865Z,13.68
2019-06-26T10:20:09.934Z,8.98
2019-06-26T10:22:39.195Z,11.80
2019-06-26T10:25:11.245Z,10.98
2019-06-26T10:27:39.647Z,11.85
2019-06-26T10:30:08.860Z,13.35
2019-06-26T10:32:37.746Z,10.23
2019-06-26T10:35:07.072Z,10.18
2019-06-26T10:37:35.931Z,11.30
2019-06-26T10:40:06.764Z,12.63
2019-06-26T10:42:35.645Z,12.47
2019-06-26T10:45:06.899Z,12.73
2019-06-26T10:47:39.453Z,12.82
2019-06-26T10:50:07.131Z,12.25
2019-06-26T10:52:36.010Z,10.05
2019-06-26T10:55:07.864Z,17.80
2019-06-26T10:57:36.764Z,9.63
2019-06-26T11:00:08.220Z,15.20
2019-06-26T11:02:37.114Z,13.20
2019-06-26T11:05:07.909Z,12.50
2019-06-26T11:07:36.819Z,10.75
2019-06-26T11:10:08.295Z,14.23
2019-06-26T11:12:37.169Z,10.10
2019-06-26T11:15:07.760Z,12.85
2019-06-26T11:17:36.645Z,14.53
2019-06-26T11:20:09.535Z,13.18
2019-06-26T11:22:38.443Z,14.33
2019-06-26T11:25:09.351Z,12.45
2019-06-26T11:27:38.221Z,13.60
2019-06-26T11:30:09.248Z,11.57
2019-06-26T11:32:38.167Z,11.93
2019-06-26T11:35:07.940Z,9.65
2019-06-26T11:37:37.156Z,11.95
2019-06-26T11:40:07.337Z,14.43
2019-06-26T11:42:36.249Z,11.40
2019-06-26T11:45:07.661Z,17.52
2019-06-26T11:47:36.944Z,14.53
2019-06-26T11:50:07.429Z,17.80
2019-06-26T11:52:36.326Z,15.53
2019-06-26T11:55:08.276Z,10.72
2019-06-26T11:57:37.204Z,15.67
2019-06-26T12:00:08.858Z,14.25
2019-06-26T12:02:37.812Z,13.62
2019-06-26T12:05:09.727Z,17.40
2019-06-26T12:07:38.755Z,13.20
2019-06-26T12:10:08.734Z,13.15
2019-06-26T12:12:37.747Z,13.00
2019-06-26T12:15:07.962Z,9.03
2019-06-26T12:17:36.833Z,12.13
2019-06-26T12:20:17.719Z,15.32
2019-06-26T12:22:37.833Z,10.93
2019-06-26T12:25:07.511Z,12.70
2019-06-26T12:27:36.389Z,11.90
2019-06-26T12:30:09.112Z,17.62
2019-06-26T12:35:07.916Z,8.05
2019-06-26T12:37:37.900Z,12.30
2019-06-26T12:40:09.753Z,13.15
2019-06-26T12:42:38.638Z,15.20
2019-06-26T12:45:08.902Z,11.78
2019-06-26T12:47:37.823Z,13.90
2019-06-26T12:50:08.298Z,12.18
2019-06-26T12:52:37.214Z,12.05
2019-06-26T12:55:07.598Z,10.40
2019-06-26T12:57:36.504Z,13.95
2019-06-26T13:00:10.543Z,9.78
2019-06-26T13:02:39.454Z,14.50
2019-06-26T13:05:08.528Z,12.13
2019-06-26T13:07:37.433Z,9.35
2019-06-26T13:10:10.005Z,14.18
2019-06-26T13:12:38.939Z,11.10
2019-06-26T13:15:09.110Z,14.68
2019-06-26T13:17:38.068Z,11.48
2019-06-26T13:20:10.685Z,9.60
2019-06-26T13:22:39.869Z,11.93
2019-06-26T13:25:09.387Z,10.48
2019-06-26T13:27:38.371Z,12.85
2019-06-26T13:30:10.030Z,11.00
2019-06-26T13:32:38.914Z,7.90
2019-06-26T13:35:07.956Z,10.03
2019-06-26T13:37:36.852Z,12.60
2019-06-26T13:40:08.867Z,8.95
2019-06-26T13:42:37.725Z,12.30
2019-06-26T13:45:09.462Z,14.25
2019-06-26T13:47:38.356Z,14.27
2019-06-26T13:50:08.578Z,10.95
2019-06-26T13:52:37.438Z,14.38
2019-06-26T13:55:07.361Z,12.23
2019-06-26T13:57:36.232Z,13.50
2019-06-26T14:00:08.569Z,11.43
2019-06-26T14:02:37.445Z,8.35
2019-06-26T14:05:09.743Z,11.83
2019-06-26T14:07:38.615Z,14.28
2019-06-26T14:10:11.381Z,14.87
2019-06-26T14:12:40.253Z,12.93
2019-06-26T14:15:09.469Z,10.20
2019-06-26T14:17:38.341Z,10.88
2019-06-26T14:20:08.369Z,13.05
2019-06-26T14:22:39.894Z,11.78
2019-06-26T14:25:10.440Z,14.78
2019-06-26T14:27:39.570Z,12.95
2019-06-26T14:30:09.127Z,16.93
2019-06-26T14:32:38.609Z,11.40
2019-06-26T14:35:08.273Z,14.53
2019-06-26T14:37:37.614Z,11.43
2019-06-26T14:40:10.958Z,10.55
2019-06-26T14:42:39.920Z,14.35
2019-06-26T14:45:11.192Z,14.75
2019-06-26T14:47:40.714Z,9.53
2019-06-26T14:50:11.058Z,8.88
2019-06-26T14:52:40.180Z,12.85
2019-06-26T14:55:09.739Z,11.48
2019-06-26T14:57:39.245Z,9.88
2019-06-26T15:00:09.499Z,11.22
2019-06-26T15:02:38.511Z,13.13
2019-06-26T15:05:10.005Z,14.90
2019-06-26T15:07:39.337Z,12.58
2019-06-26T15:10:12.362Z,12.55
2019-06-26T15:12:42.029Z,13.38
2019-06-26T15:15:11.453Z,14.07
2019-06-26T15:17:41.357Z,12.50
2019-06-26T15:20:10.819Z,11.78
2019-06-26T15:22:40.112Z,9.98
2019-06-26T15:25:10.519Z,14.55
2019-06-26T15:27:41.038Z,13.80
2019-06-26T15:30:11.093Z,9.93
2019-06-26T15:32:40.408Z,10.60
2019-06-26T15:35:10.042Z,14.10
2019-06-26T15:37:39.434Z,10.68
2019-06-26T15:40:09.258Z,13.93
2019-06-26T15:42:39.533Z,9.73
2019-06-26T15:45:13.427Z,12.58
2019-06-26T15:47:43.223Z,11.50
2019-06-26T15:50:13.007Z,13.03
2019-06-26T15:52:41.913Z,13.48
2019-06-26T15:55:10.996Z,11.40
2019-06-26T15:57:39.933Z,13.10
2019-06-26T16:00:11.416Z,9.60
2019-06-26T16:02:40.389Z,14.50
2019-06-26T16:05:09.788Z,11.78
2019-06-26T16:07:38.686Z,13.53
2019-06-26T16:10:08.377Z,13.20
2019-06-26T16:12:37.282Z,12.98
2019-06-26T16:15:06.976Z,12.65
2019-06-26T16:17:40.226Z,10.98
2019-06-26T16:20:09.312Z,9.40
2019-06-26T16:22:38.298Z,10.23
2019-06-26T16:25:07.419Z,9.05
2019-06-26T16:27:36.390Z,14.75
2019-06-26T16:30:06.998Z,10.13
2019-06-26T16:32:35.875Z,9.90
2019-06-26T16:35:06.709Z,10.30
2019-06-26T16:37:35.676Z,13.48
2019-06-26T16:40:06.696Z,10.13
2019-06-26T16:42:35.593Z,13.50
2019-06-26T16:45:06.377Z,11.40
2019-06-26T16:47:35.298Z,14.95
2019-06-26T16:50:05.523Z,12.85
2019-06-26T16:52:47.916Z,11.97
2019-06-26T16:55:09.406Z,10.25
2019-06-26T16:57:38.283Z,10.90
2019-06-26T17:00:11.780Z,12.85
2019-06-26T17:02:40.736Z,11.15
2019-06-26T17:05:10.809Z,10.68
2019-06-26T17:07:39.739Z,13.28
2019-06-26T17:10:09.025Z,13.13
2019-06-26T17:12:37.951Z,15.63
2019-06-26T17:15:08.224Z,12.28
2019-06-26T17:17:37.157Z,9.55
2019-06-26T17:20:06.895Z,10.68
2019-06-26T17:22:35.863Z,10.48
2019-06-26T17:25:06.104Z,10.65
2019-06-26T17:27:35.075Z,12.15
2019-06-26T17:30:06.042Z,10.58
2019-06-26T17:32:34.963Z,12.82
2019-06-26T17:35:05.514Z,12.30
2019-06-26T17:37:34.484Z,13.98
2019-06-26T17:40:03.350Z,11.95
2019-06-26T17:42:32.254Z,12.43
2019-06-26T17:45:01.123Z,10.32
2019-06-26T17:47:30.053Z,11.70
2019-06-26T17:49:58.936Z,12.70
2019-06-26T17:52:27.846Z,10.28
2019-06-26T17:54:56.725Z,11.57
2019-06-26T17:57:25.645Z,10.85
2019-06-26T17:59:54.523Z,12.70
2019-06-26T18:02:23.442Z,12.35
2019-06-26T18:04:52.323Z,11.80
2019-06-26T18:07:21.233Z,11.78
2019-06-26T18:09:50.121Z,10.98
2019-06-26T18:12:19.021Z,11.28
2019-06-26T18:14:47.911Z,11.75
2019-06-26T18:17:22.117Z,12.73
2019-06-26T18:19:47.383Z,10.72
2019-06-26T18:22:16.271Z,11.35
2019-06-26T18:24:45.159Z,12.93
2019-06-26T18:27:14.078Z,11.88
2019-06-26T18:29:42.993Z,10.53
2019-06-26T18:32:11.868Z,11.05
2019-06-26T18:34:46.706Z,10.90
2019-06-26T18:37:17.465Z,11.55
2019-06-26T18:39:46.743Z,12.65
2019-06-26T18:42:16.045Z,11.95
2019-06-26T18:44:45.440Z,12.37
2019-06-26T18:47:14.931Z,12.82
2019-06-26T18:49:44.604Z,11.97
2019-06-26T18:52:14.147Z,12.05
2019-06-26T18:54:43.720Z,11.28
2019-06-26T18:57:12.653Z,11.80
2019-06-26T18:59:42.308Z,11.65
2019-06-26T19:02:11.331Z,12.60
2019-06-26T19:04:40.248Z,12.43
2019-06-26T19:07:09.730Z,13.75
2019-06-26T19:09:38.613Z,13.53
2019-06-26T19:12:07.526Z,16.10
2019-06-26T19:14:36.396Z,13.05
2019-06-26T19:17:05.309Z,13.85
2019-06-26T19:19:34.182Z,15.00
2019-06-26T19:22:03.204Z,14.75
2019-06-26T19:24:32.079Z,12.07
2019-06-26T19:27:01.016Z,13.20
2019-06-26T19:29:29.887Z,11.90
2019-06-26T19:31:58.793Z,11.73
2019-06-26T19:34:27.663Z,11.18
2019-06-26T19:36:56.639Z,12.58
2019-06-26T19:39:25.569Z,14.00
2019-06-26T19:41:54.515Z,13.80
2019-06-26T19:44:23.461Z,16.42
2019-06-26T19:46:52.382Z,14.55
2019-06-26T19:49:21.283Z,14.07
2019-06-26T19:51:50.276Z,15.32
2019-06-26T19:54:27.081Z,15.23
2019-06-26T19:56:49.723Z,13.03
2019-06-26T19:59:18.593Z,13.20
2019-06-26T20:01:51.151Z,15.80
2019-06-26T20:04:18.032Z,15.35
2019-06-26T20:06:46.954Z,14.75
2019-06-26T20:09:15.818Z,15.93
2019-06-26T20:11:44.750Z,18.77
2019-06-26T20:14:13.619Z,15.95
2019-06-26T20:16:42.537Z,16.05
2019-06-26T20:19:11.423Z,15.72
2019-06-26T20:21:40.718Z,19.12
2019-06-26T20:24:09.590Z,17.57
2019-06-26T20:26:38.530Z,18.65
2019-06-26T20:29:07.409Z,18.12
2019-06-26T20:31:36.330Z,19.37
2019-06-26T20:34:05.217Z,20.23
2019-06-26T20:36:34.125Z,20.08
2019-06-26T20:39:03.630Z,21.10
2019-06-26T20:41:32.564Z,17.55
2019-06-26T20:44:01.432Z,19.90
2019-06-26T20:46:30.351Z,17.23
2019-06-26T20:48:59.403Z,16.52
2019-06-26T20:51:28.500Z,19.70
2019-06-26T20:53:57.426Z,17.75
2019-06-26T20:56:26.314Z,16.55
2019-06-26T20:58:55.221Z,15.85
2019-06-26T21:01:24.103Z,17.92
2019-06-26T21:03:53.034Z,17.73
2019-06-26T21:06:21.905Z,16.07
2019-06-26T21:08:50.816Z,16.45
2019-06-26T21:11:19.695Z,17.32
2019-06-26T21:13:48.622Z,16.37
2019-06-26T21:16:17.517Z,17.40
2019-06-26T21:18:46.420Z,14.93
2019-06-26T21:21:15.350Z,16.30
2019-06-26T21:23:44.258Z,17.27
2019-06-26T21:26:13.138Z,20.82
2019-06-26T21:28:42.059Z,16.27
2019-06-26T21:31:10.933Z,14.60
2019-06-26T21:33:39.850Z,15.20
2019-06-26T21:36:08.742Z,16.00
2019-06-26T21:38:37.653Z,15.50
2019-06-26T21:41:06.534Z,16.55
2019-06-26T21:43:35.453Z,15.50
2019-06-26T21:46:04.330Z,17.35
2019-06-26T21:48:33.247Z,15.15
2019-06-26T21:51:02.266Z,15.00
2019-06-26T21:53:31.353Z,18.20
2019-06-26T21:56:00.224Z,17.45
2019-06-26T21:58:29.188Z,17.57
2019-06-26T22:00:58.358Z,22.62
2019-06-26T22:03:27.233Z,19.30
2019-06-26T22:05:56.157Z,19.67
2019-06-26T22:08:25.060Z,21.82
2019-06-26T22:10:53.946Z,21.05
2019-06-26T22:13:22.825Z,17.30
2019-06-26T22:15:51.754Z,17.67
2019-06-26T22:18:20.623Z,17.23
2019-06-26T22:20:49.557Z,19.07
2019-06-26T22:23:18.530Z,19.60
2019-06-26T22:25:51.260Z,18.85
2019-06-26T22:28:17.967Z,19.75
2019-06-26T22:30:46.874Z,18.48
2019-06-26T22:33:15.748Z,18.45
2019-06-26T22:35:44.675Z,22.40
2019-06-26T22:38:13.557Z,21.20
2019-06-26T22:40:42.465Z,21.00
2019-06-26T22:43:11.347Z,18.92
2019-06-26T22:45:41.164Z,19.02
2019-06-26T22:48:10.041Z,17.87
2019-06-26T22:50:38.986Z,19.95
2019-06-26T22:53:07.852Z,20.02
2019-06-26T22:55:36.784Z,21.10
2019-06-26T22:58:05.657Z,22.45
2019-06-26T23:00:34.579Z,19.55
2019-06-26T23:03:03.574Z,18.30
2019-06-26T23:05:32.550Z,17.92
2019-06-26T23:08:01.475Z,18.80
2019-06-26T23:10:30.375Z,18.50
2019-06-26T23:12:59.278Z,17.30
2019-06-26T23:15:28.162Z,18.42
2019-06-26T23:17:57.106Z,19.37
2019-06-26T23:20:25.997Z,19.10
2019-06-26T23:22:54.921Z,18.35
2019-06-26T23:25:23.798Z,16.85
2019-06-26T23:27:52.725Z,18.20
2019-06-26T23:30:22.407Z,18.67
2019-06-26T23:32:51.333Z,18.80
2019-06-26T23:35:20.214Z,18.77
2019-06-26T23:37:49.247Z,21.82
2019-06-26T23:40:18.482Z,21.15
2019-06-26T23:42:47.406Z,18.98
2019-06-26T23:45:16.390Z,18.20
2019-06-26T23:47:45.812Z,19.45
2019-06-26T23:50:14.694Z,18.15
2019-06-26T23:52:43.618Z,21.33
2019-06-26T23:55:12.712Z,18.35
2019-06-26T23:57:58.032Z,17.32
